Latest Coastal Weather Observations for Yanakie

IDV60701

Issued at 10:05 pm EST Sunday 21 September 2014 (issued every 10 minutes, with the page automatically refreshed every 10 minutes)

About coastal observations | Map of coastal stations | Coastal observations for VIC | Marine services | Other Formats
Station Details ID: 085301 Name: YANAKIE Lat: -38.81 Lon: 146.19 Height: 13.3 m
Data from the previous 72 hours. | See also: Recent months at Yanakie
Date/Time
EST
Temp

°C
Wind Pressure Rain
since 9am
mm
Weather Cloud Vis
km
Sea
Height
m
Swell
Dir
 
Speed
knots
Gust
knots
hPa Trend Height
m
Period
s
Dir
21/10:00pm 5.1 NNW 2 3 1030.2 - 0.0 - - - - - - -
21/09:30pm 6.4 NW 1 2 1030.4 - 0.0 - - - - - - -
21/09:00pm 6.0 NW 3 3 1030.4 - 0.0 - - - - - - -
21/08:30pm 7.1 WNW 2 4 1030.5 - 0.0 - - - - - - -
21/08:00pm 7.3 WNW 2 3 1030.5 - 0.0 - - - - - - -
21/07:30pm 7.7 WNW 2 3 1030.6 - 0.0 - - - - - - -
21/07:00pm 8.4 W 1 2 1030.5 - 0.0 - - - - - - -
21/06:30pm 9.1 WSW 4 5 1030.1 - 0.0 - - - - - - -
21/06:00pm 10.5 W 5 7 1029.9 - 0.0 - - - - - - -
21/05:30pm 12.3 SW 8 9 1029.9 - 0.0 - - - - - - -
21/05:00pm 13.2 SW 8 10 1029.8 - 0.0 - - - - - - -
21/04:30pm 13.8 SW 9 12 1029.9 - 0.0 - - - - - - -
21/04:00pm 14.3 WSW 9 12 1029.9 - 0.0 - - - - - - -
21/03:30pm 14.2 WSW 11 14 1029.9 - 0.0 - - - - - - -
21/03:00pm 14.4 WSW 12 16 1029.9 - 0.0 - - - - - - -
21/02:30pm 14.9 SW 12 15 1030.0 - 0.0 - - - - - - -
21/02:00pm 15.2 SW 12 16 1030.0 - 0.0 - - - - - - -
21/01:30pm 15.2 SW 12 16 1030.2 - 0.0 - - - - - - -
21/01:00pm 15.3 SW 12 15 1030.4 - 0.0 - - - - - - -
21/12:30pm 14.9 WSW 10 15 1030.7 - 0.0 - - - - - - -
21/12:00pm 15.1 WSW 8 12 1031.0 - 0.0 - - - - - - -
21/11:30am 14.4 WSW 9 13 1031.3 - 0.0 - - - - - - -
21/11:00am 14.3 SW 10 12 1031.5 - 0.0 - - - - - - -
21/10:30am 14.2 SW 7 10 1031.6 - 0.0 - - - - - - -
21/10:00am 13.5 SW 8 10 1031.5 - 0.0 - - - - - - -
21/09:30am 13.4 WSW 8 12 1031.4 - 0.0 - - - - - - -
21/09:00am 13.0 W 8 10 1031.2 - 0.0 - - - - - - -
21/08:30am 13.3 SW 6 8 1031.0 - 0.0 - - - - - - -
21/08:00am 12.4 WSW 7 11 1030.8 - 0.0 - - - - - - -
21/07:30am 11.9 SW 8 11 1030.7 - 0.0 - - - - - - -
21/07:00am 11.5 SW 8 11 1030.4 - 0.0 - - - - - - -
21/06:30am 11.1 WSW 7 11 1030.2 - 0.0 - - - - - - -
21/06:00am 11.0 SW 7 10 1030.1 - 0.0 - - - - - - -
21/05:30am 10.8 SW 7 8 1029.7 - 0.0 - - - - - - -
21/05:00am 10.9 SSW 6 8 1029.4 - 0.0 - - - - - - -
21/04:30am 10.9 WSW 6 8 1029.2 - 0.0 - - - - - - -
21/04:00am 10.9 WSW 7 10 1029.1 - 0.0 - - - - - - -
21/03:30am 10.7 SW 8 12 1029.1 - 0.0 - - - - - - -
21/03:00am 11.0 SSW 8 11 1029.0 - 0.0 - - - - - - -
21/02:30am 10.9 SW 11 15 1029.2 - 0.0 - - - - - - -
21/02:00am 10.9 SSW 9 11 1029.3 - 0.0 - - - - - - -
21/01:30am 11.3 SW 9 13 1029.5 - 0.0 - - - - - - -
21/01:00am 11.1 SW 9 11 1029.6 - 0.0 - - - - - - -
21/12:30am 10.9 SW 9 12 1029.7 - 0.0 - - - - - - -
21/12:00am 10.8 SW 9 11 1029.6 - 0.0 - - - - - - -
 
Date/Time
EST
Temp

°C
Wind Pressure Rain
since 9am
mm
Weather Cloud Vis
km
Sea
Height
m
Swell
Dir
 
Speed
knots
Gust
knots
hPa Trend Height
m
Period
s
Dir
20/11:30pm 10.0 SW 10 13 1029.5 - 0.0 - - - - - - -
20/11:00pm 9.8 SW 8 10 1029.7 - 0.0 - - - - - - -
20/10:30pm 9.9 SW 9 11 1029.7 - 0.0 - - - - - - -
20/10:00pm 10.1 WSW 8 11 1029.5 - 0.0 - - - - - - -
20/09:30pm 10.5 W 4 6 1029.6 - 0.0 - - - - - - -
20/09:00pm 10.4 WSW 7 9 1029.5 - 0.0 - - - - - - -
20/08:30pm 10.1 SW 8 12 1029.6 - 0.0 - - - - - - -
20/08:00pm 11.1 SW 9 12 1029.7 - 0.0 - - - - - - -
20/07:30pm 11.2 SW 8 12 1029.5 - 0.0 - - - - - - -
20/07:00pm 10.7 SW 7 9 1029.2 - 0.0 - - - - - - -
20/06:30pm 11.3 SSW 9 13 1028.8 - 0.0 - - - - - - -
20/06:00pm 11.7 SW 8 11 1028.6 - 0.0 - - - - - - -
20/05:30pm 12.0 SW 12 16 1028.2 - 0.0 - - - - - - -
20/05:00pm 11.7 SW 9 15 1028.0 - 0.0 - - - - - - -
20/04:30pm 12.6 SW 10 15 1027.7 - 0.0 - - - - - - -
20/04:00pm 12.2 SW 11 15 1027.6 - 0.0 - - - - - - -
20/03:30pm 13.3 SW 11 15 1027.3 - 0.0 - - - - - - -
20/03:00pm 13.3 SW 14 18 1027.1 - 0.0 - - - - - - -
20/02:30pm 13.5 SW 14 16 1027.1 - 0.0 - - - - - - -
20/02:00pm 14.2 SSW 14 19 1026.8 - 0.0 - - - - - - -
20/01:30pm 14.2 SW 14 18 1026.8 - 0.0 - - - - - - -
20/01:00pm 14.6 SW 13 17 1026.9 - 0.0 - - - - - - -
20/12:30pm 13.7 SW 13 17 1026.9 - 0.0 - - - - - - -
20/12:00pm 14.9 SW 13 16 1027.0 - 0.0 - - - - - - -
20/11:30am 13.9 SW 13 16 1027.0 - 0.0 - - - - - - -
20/11:00am 13.2 SW 13 18 1027.2 - 0.0 - - - - - - -
20/10:30am 14.1 SW 13 16 1027.1 - 0.0 - - - - - - -
20/10:00am 14.5 SW 13 17 1027.2 - 0.0 - - - - - - -
20/09:30am 13.8 SW 15 18 1027.1 - 0.0 - - - - - - -
20/09:00am 13.7 SW 15 20 1026.9 - 0.4 - - - - - - -
20/08:30am 13.2 SSW 14 17 1026.6 - 0.4 - - - - - - -
20/08:00am 12.8 SSW 14 16 1026.6 - 0.4 - - - - - - -
20/07:30am 12.7 SSW 12 15 1026.2 - 0.4 - - - - - - -
20/07:00am 11.6 SSW 12 16 1025.9 - 0.4 - - - - - - -
20/06:30am 11.1 SSW 8 12 1025.5 - 0.4 - - - - - - -
20/06:00am 10.7 SW 10 13 1025.1 - 0.4 - - - - - - -
20/05:30am 10.3 SW 9 12 1024.7 - 0.4 - - - - - - -
20/05:00am 10.9 SW 12 14 1024.3 - 0.4 - - - - - - -
20/04:30am 10.2 WSW 9 12 1024.1 - 0.4 - - - - - - -
20/04:00am 10.7 WSW 9 13 1023.8 - 0.4 - - - - - - -
20/03:30am 10.7 WSW 10 13 1023.9 - 0.4 - - - - - - -
20/03:00am 10.6 W 10 13 1023.7 - 0.4 Recent precip. - - - - - -
20/02:30am 10.4 WSW 10 15 1023.8 - 0.4 - - - - - - -
20/02:00am 10.6 WSW 11 14 1023.8 - 0.2 - - - - - - -
20/01:30am 11.2 WSW 11 16 1024.0 - 0.0 - - - - - - -
20/01:00am 11.2 WSW 11 16 1024.0 - 0.0 - - - - - - -
20/12:30am 10.7 WSW 11 16 1024.0 - 0.0 - - - - - - -
20/12:00am 10.1 W 9 12 1023.8 - 0.0 - - - - - - -
 
Date/Time
EST
Temp

°C
Wind Pressure Rain
since 9am
mm
Weather Cloud Vis
km
Sea
Height
m
Swell
Dir
 
Speed
knots
Gust
knots
hPa Trend Height
m
Period
s
Dir
19/11:30pm 10.2 W 11 14 1023.9 - 0.0 - - - - - - -
19/11:00pm 10.2 W 12 15 1024.0 - 0.0 - - - - - - -
19/10:30pm 10.7 WSW 13 17 1024.1 - 0.0 - - - - - - -
19/10:00pm 10.9 WSW 15 19 1024.1 - 0.0 - - - - - - -
19/09:30pm 10.5 WSW 11 16 1024.0 - 0.0 - - - - - - -
19/09:00pm 11.4 WSW 13 17 1024.1 - 0.0 - - - - - - -
19/08:30pm 10.9 SW 15 20 1024.1 - 0.0 - - - - - - -
19/08:00pm 11.2 WSW 9 12 1023.9 - 0.0 - - - - - - -
19/07:30pm 11.3 WSW 16 21 1023.7 - 0.0 - - - - - - -
19/07:00pm 11.4 WSW 12 16 1023.4 - 0.0 - - - - - - -
19/06:30pm 11.5 WSW 12 16 1023.2 - 0.0 - - - - - - -
19/06:00pm 11.5 WSW 15 20 1023.0 - 0.0 - - - - - - -
19/05:30pm 12.0 WSW 13 18 1022.8 - 0.0 - - - - - - -
19/05:00pm 12.0 WSW 14 18 1022.6 - 0.0 - - - - - - -
19/04:30pm 12.8 WSW 15 20 1022.5 - 0.0 - - - - - - -
19/04:00pm 13.3 WSW 14 19 1022.5 - 0.0 - - - - - - -
19/03:30pm 13.8 WSW 15 23 1022.3 - 0.0 - - - - - - -
19/03:00pm 13.3 WSW 15 19 1022.3 - 0.0 - - - - - - -
19/02:30pm 13.5 WSW 14 19 1022.3 - 0.0 - - - - - - -
19/02:00pm 13.6 WSW 14 18 1022.4 - 0.0 - - - - - - -
19/01:30pm 13.5 W 15 18 1022.5 - 0.0 - - - - - - -
19/01:00pm 14.3 WSW 16 22 1022.7 - 0.0 - - - - - - -
19/12:30pm 14.0 WSW 12 18 1022.8 - 0.0 - - - - - - -
19/12:00pm 12.9 W 14 20 1022.8 - 0.0 - - - - - - -
19/11:30am 13.7 WSW 18 26 1022.9 - 0.0 - - - - - - -
19/11:00am 13.7 WSW 17 22 1022.9 - 0.0 - - - - - - -
19/10:30am 12.5 SW 16 23 1023.2 - 0.0 - - - - - - -
19/10:00am 12.7 WSW 13 17 1023.1 - 0.0 - - - - - - -
19/09:30am 12.6 WSW 14 21 1023.1 - 0.0 - - - - - - -
19/09:00am 11.9 W 13 16 1023.1 - 1.4 Recent precip. - - - - - -
19/08:30am 10.3 WSW 16 22 1023.2 - 1.4 - - - - - - -
19/08:00am 11.6 W 12 16 1022.8 - 0.8 - - - - - - -
19/07:30am 10.8 W 9 12 1022.6 - 0.8 - - - - - - -
19/07:00am 10.6 W 11 14 1022.5 - 0.8 - - - - - - -
19/06:30am 10.4 WSW 11 17 1022.3 - 0.8 - - - - - - -
19/06:00am 10.1 W 9 13 1021.9 - 0.8 - - - - - - -
19/05:30am 9.9 W 11 16 1021.8 - 0.8 - - - - - - -
19/05:00am 10.3 W 13 17 1021.6 - 0.8 - - - - - - -
19/04:30am 9.9 WSW 11 16 1021.5 - 0.8 - - - - - - -
19/04:00am 9.5 WSW 16 21 1021.8 - 0.8 - - - - - - -
19/03:30am 9.7 WSW 15 21 1021.7 - 0.4 - - - - - - -
19/03:00am 10.3 W 11 16 1021.5 - 0.2 - - - - - - -
19/02:30am 10.0 W 8 10 1021.8 - 0.2 - - - - - - -
19/02:00am 9.4 WNW 7 10 1021.9 - 0.2 - - - - - - -
19/01:30am 9.3 W 10 12 1022.3 - 0.2 - - - - - - -
19/01:00am 9.5 W 9 12 1022.3 - 0.2 - - - - - - -
19/12:30am 9.9 W 10 18 1022.4 - 0.2 - - - - - - -
19/12:00am 9.4 WNW 7 10 1022.4 - 0.2 - - - - - - -
 
Date/Time
EST
Temp

°C
Wind Pressure Rain
since 9am
mm
Weather Cloud Vis
km
Sea
Height
m
Swell
Dir
 
Speed
knots
Gust
knots
hPa Trend Height
m
Period
s
Dir
18/11:30pm 10.0 W 12 15 1023.0 - 0.2 - - - - - - -
18/11:00pm 10.2 WSW 11 17 1023.1 - 0.2 - - - - - - -
18/10:30pm 10.5 W 10 16 1023.1 - 0.2 - - - - - - -

Other Formats:

Comma delimited format used in spreadsheet applications
http://www.bom.gov.au/fwo/IDV60701/IDV60701.94911.axf

JavaScript Object Notation format (JSON) in row-major order
http://www.bom.gov.au/fwo/IDV60701/IDV60701.94911.json